Disclaimer

Please do not use the information listed here in-flight or in-navigation, as they are not provided to us by the airports but are provided by volunteers, so they might be outdated.

Search


Regions


Airport information page

Radio informations:
Tower (TWR) - 122.1 MHz
LOSSIE DEP - 119.35 MHz
LOSSIE APP - 123.3 MHz

Airport informations:
Latitude: 57° 38' 57.79" N
Longitude: 003° 33' 38.29" W
Elevation: 22 feet - 7 meters
Operating hours: Remarks
Operating agency: Military
Timezone: UTC 0(+1DT) - Last Sunday in March to last Sunday in October
Fuel: N/A

Runway information:
08/26 - 7582 x 151 feet< - >2311 x 46 meters

Recent METARs:
EGQK 201250Z AUTO 08011KT 9999 -RA FEW034/// SCT042/// BKN050/// 07/04 Q1026
EGQK 201350Z AUTO 08012KT 9999 FEW028/// 07/03 Q1025 RERA
EGQK 201350Z AUTO 08012KT 9999 FEW028/// 07/03 Q1025 RERA

Airport on the map: